»·PEaware :: SWA61 KSAN-KLAS

SWA61 :: KSAN-KLAS

FLIGHT INFORMATION

Flight Status: Arrived
Operator:
Southwest Airlines
More flights by this operator :: More flights under this callsign
Pilot: Alfredo R. (12181)
Aircraft: BOEING 737-300
(B733)
More flights by this aircraft type
Origin: KSAN San Diego Intl-Lindbergh
United States
Destination: KLAS McCarran Intl
United States
More flights between these airports :: More routes between these airports
Route: +PADRZ2 CHKNN SEBBY YELAH MISEN KEPEC6
File this flight plan on PilotEdge
Remarks:
Altitude:
(Current/Filed)
29,000ft
Speed:
(Current/Filed)
430kts
Departed: 27-Dec-17 06:43 PM
Arrived: 27-Dec-17 07:43 PM
Distance/Time
Traveled:
225nm/1:00
Distance/Time
To Go:
Arrived

Flight Plot

Page will automatically refresh every two minutes.

Flight plan parsing failed; only flown route is shown


Map Options




Map Legend


Flown Route
Filed Route
Departure Airport
Arrival Airport
Navaid (VOR, NDB)
Fix

Horizontal Profiles

Position Reports

Time Latitude Longitude Heading Altitude Ground
Speed
27-Dec-17 18:16 32.733342 -117.196479 171 24ft 0kts
27-Dec-17 18:17 32.733342 -117.196479 171 24ft 0kts
27-Dec-17 18:18 32.733342 -117.196479 171 24ft 0kts
27-Dec-17 18:19 32.733342 -117.196479 171 24ft 0kts
27-Dec-17 18:20 32.733342 -117.196479 171 24ft 0kts
27-Dec-17 18:21 32.733342 -117.196479 171 24ft 0kts
27-Dec-17 18:22 32.733342 -117.196479 171 24ft 0kts
27-Dec-17 18:23 32.733342 -117.196479 171 24ft 0kts
27-Dec-17 18:24 32.733342 -117.196479 171 24ft 0kts
27-Dec-17 18:25 32.733342 -117.196479 171 24ft 0kts
27-Dec-17 18:26 32.733342 -117.196479 171 24ft 0kts
27-Dec-17 18:27 32.733342 -117.196479 171 24ft 0kts
27-Dec-17 18:28 32.733342 -117.196479 171 24ft 0kts
27-Dec-17 18:29 32.733342 -117.196479 171 24ft 0kts
27-Dec-17 18:30 32.733342 -117.196479 171 24ft 0kts
27-Dec-17 18:31 32.733342 -117.196479 171 24ft 0kts
27-Dec-17 18:32 32.733342 -117.196479 171 24ft 0kts
27-Dec-17 18:33 32.733342 -117.196479 171 24ft 0kts
27-Dec-17 18:34 32.733551 -117.196590 131 24ft 2kts
27-Dec-17 18:35 32.733427 -117.197155 15 24ft 0kts
27-Dec-17 18:36 32.733421 -117.197157 14 24ft 0kts
27-Dec-17 18:37 32.733421 -117.197157 14 24ft 0kts
27-Dec-17 18:38 32.733421 -117.197157 14 24ft 0kts
27-Dec-17 18:39 32.733421 -117.197157 14 24ft 0kts
27-Dec-17 18:40 32.733635 -117.197075 17 24ft 0kts
27-Dec-17 18:41 32.733635 -117.197075 17 24ft 0kts
27-Dec-17 18:42 32.734106 -117.196157 107 24ft 9kts
27-Dec-17 18:43 32.733137 -117.192167 106 24ft 15kts
27-Dec-17 18:44 32.731733 -117.186381 105 24ft 20kts
27-Dec-17 18:45 32.730100 -117.179639 105 24ft 22kts
27-Dec-17 18:46 32.729499 -117.176823 78 24ft 2kts
27-Dec-17 18:47 32.729544 -117.176632 73 24ft 2kts
27-Dec-17 18:48 32.730324 -117.176358 286 24ft 10kts
27-Dec-17 18:49 32.734867 -117.195132 285 24ft 143kts
27-Dec-17 18:50 32.749429 -117.237724 307 1011ft 185kts
27-Dec-17 18:51 32.783153 -117.287955 303 2806ft 208kts
27-Dec-17 18:52 32.821951 -117.352743 308 4293ft 264kts
27-Dec-17 18:53 32.867337 -117.423309 308 6695ft 276kts
27-Dec-17 18:54 32.908535 -117.487265 308 8718ft 287kts
27-Dec-17 18:55 32.958331 -117.564879 308 10254ft 326kts
27-Dec-17 18:56 33.015987 -117.654853 308 12117ft 350kts
27-Dec-17 18:57 33.078029 -117.744574 320 14238ft 354kts
27-Dec-17 18:58 33.152934 -117.820183 320 14997ft 360kts
27-Dec-17 18:59 33.229386 -117.896445 321 14980ft 358kts
27-Dec-17 19:00 33.306286 -117.971433 321 15065ft 360kts
27-Dec-17 19:01 33.380056 -118.043522 321 16800ft 368kts
27-Dec-17 19:02 33.459947 -118.121777 320 18466ft 379kts
27-Dec-17 19:03 33.541429 -118.201791 321 20090ft 387kts
27-Dec-17 19:04 33.633186 -118.267904 336 21581ft 393kts
27-Dec-17 19:05 33.733267 -118.320917 348 22897ft 400kts
27-Dec-17 19:06 33.818371 -118.254719 66 23883ft 414kts
27-Dec-17 19:07 33.877432 -118.137015 53 25076ft 418kts
27-Dec-17 19:08 33.944948 -118.022655 52 26118ft 427kts
27-Dec-17 19:09 34.013619 -117.906477 52 27197ft 432kts
27-Dec-17 19:10 34.083462 -117.787911 52 28246ft 436kts
27-Dec-17 19:11 34.158253 -117.677054 47 29223ft 424kts
27-Dec-17 19:12 34.232061 -117.569193 47 29159ft 420kts
27-Dec-17 19:13 34.306376 -117.460176 47 29161ft 428kts
27-Dec-17 19:14 34.381481 -117.349654 48 29207ft 427kts
27-Dec-17 19:15 34.456234 -117.239063 48 29214ft 428kts
27-Dec-17 19:16 34.530800 -117.128636 48 29209ft 425kts
27-Dec-17 19:17 34.605096 -117.018293 48 29229ft 425kts
27-Dec-17 19:18 34.678879 -116.908068 48 29239ft 424kts
27-Dec-17 19:19 34.752991 -116.797075 48 28949ft 425kts
27-Dec-17 19:20 34.826087 -116.687262 48 27828ft 427kts
27-Dec-17 19:21 34.910987 -116.589222 35 26650ft 424kts
27-Dec-17 19:22 35.000290 -116.503201 35 25438ft 406kts
27-Dec-17 19:23 35.087664 -116.418305 35 24318ft 399kts
27-Dec-17 19:24 35.166498 -116.323955 43 24237ft 404kts
27-Dec-17 19:25 35.244346 -116.226109 43 23283ft 399kts
27-Dec-17 19:26 35.321008 -116.129753 43 21791ft 394kts
27-Dec-17 19:27 35.396319 -116.034855 43 20290ft 384kts
27-Dec-17 19:28 35.467696 -115.944651 43 18787ft 361kts
27-Dec-17 19:29 35.535261 -115.859045 43 17281ft 343kts
27-Dec-17 19:30 35.600489 -115.776190 43 15795ft 335kts
27-Dec-17 19:31 35.662848 -115.696786 44 14423ft 314kts
27-Dec-17 19:32 35.722636 -115.619912 44 13098ft 307kts
27-Dec-17 19:33 35.793576 -115.573359 1 13026ft 303kts
27-Dec-17 19:34 35.877213 -115.568898 1 13018ft 302kts
27-Dec-17 19:35 35.959776 -115.559100 26 12959ft 305kts
27-Dec-17 19:36 35.999954 -115.473513 67 12044ft 281kts
27-Dec-17 19:37 36.027897 -115.385002 70 11137ft 272kts
27-Dec-17 19:38 36.025173 -115.294669 95 10192ft 264kts
27-Dec-17 19:39 36.018659 -115.205427 95 9297ft 257kts
27-Dec-17 19:40 36.012837 -115.120427 95 8399ft 246kts
27-Dec-17 19:41 36.007551 -115.037415 94 7626ft 243kts
27-Dec-17 19:42 36.002995 -114.956133 94 6624ft 236kts
27-Dec-17 19:43 36.020825 -114.891911 358 5618ft 208kts
27-Dec-17 19:44 36.063348 -114.930084 311 4851ft 182kts
27-Dec-17 19:45 36.074993 -114.987069 264 4968ft 170kts
27-Dec-17 19:46 36.073675 -115.043644 266 4439ft 149kts
27-Dec-17 19:47 36.073710 -115.094748 270 3287ft 151kts
27-Dec-17 19:48 36.073709 -115.143534 269 2095ft 110kts
27-Dec-17 19:49 36.073609 -115.160559 276 2161ft 12kts
27-Dec-17 19:50 36.077047 -115.161260 0 2154ft 11kts
27-Dec-17 19:51 36.078028 -115.157022 89 2138ft 18kts
27-Dec-17 19:52 36.077896 -115.149079 94 2107ft 13kts
27-Dec-17 19:53 36.078453 -115.146009 95 2097ft 14kts
27-Dec-17 19:54 36.080150 -115.145144 285 2090ft 4kts
27-Dec-17 19:55 36.080214 -115.145749 275 2091ft 0kts
27-Dec-17 19:56 36.080214 -115.145759 275 2091ft 0kts
27-Dec-17 19:57 36.080214 -115.145759 275 2091ft 0kts
27-Dec-17 19:58 36.080214 -115.145759 275 2091ft 0kts

Navigation Log

Ident Type
Flight plan parsing failed, navigation log unavailable